sensor_id;sensor_type;location;lat;lon;timestamp;temperature;humidity
8988;DHT22;4529;51.360;12.474;2022-07-05T00:04:53;17.30;99.90
8988;DHT22;4529;51.360;12.474;2022-07-05T00:09:56;17.30;99.90
8988;DHT22;4529;51.360;12.474;2022-07-05T00:15:00;17.30;99.90
8988;DHT22;4529;51.360;12.474;2022-07-05T00:20:03;17.20;99.90
8988;DHT22;4529;51.360;12.474;2022-07-05T00:25:07;17.10;99.90
8988;DHT22;4529;51.360;12.474;2022-07-05T00:30:12;17.00;99.90
8988;DHT22;4529;51.360;12.474;2022-07-05T00:35:16;16.90;99.90
8988;DHT22;4529;51.360;12.474;2022-07-05T00:40:20;16.90;99.90
8988;DHT22;4529;51.360;12.474;2022-07-05T00:45:24;16.70;99.90
8988;DHT22;4529;51.360;12.474;2022-07-05T00:50:27;16.70;99.90
8988;DHT22;4529;51.360;12.474;2022-07-05T00:55:31;16.40;99.90
8988;DHT22;4529;51.360;12.474;2022-07-05T01:00:35;16.40;99.90
8988;DHT22;4529;51.360;12.474;2022-07-05T01:05:38;16.10;99.90
8988;DHT22;4529;51.360;12.474;2022-07-05T01:10:42;16.00;99.90
8988;DHT22;4529;51.360;12.474;2022-07-05T01:15:45;15.90;99.90
8988;DHT22;4529;51.360;12.474;2022-07-05T01:20:49;15.80;99.90
8988;DHT22;4529;51.360;12.474;2022-07-05T01:25:52;15.80;99.90
8988;DHT22;4529;51.360;12.474;2022-07-05T01:30:56;15.70;99.90
8988;DHT22;4529;51.360;12.474;2022-07-05T01:35:59;15.70;99.90
8988;DHT22;4529;51.360;12.474;2022-07-05T01:41:03;15.70;99.90
8988;DHT22;4529;51.360;12.474;2022-07-05T01:46:06;15.60;99.90
8988;DHT22;4529;51.360;12.474;2022-07-05T01:51:24;15.50;99.90
8988;DHT22;4529;51.360;12.474;2022-07-05T01:56:25;15.40;99.90
8988;DHT22;4529;51.360;12.474;2022-07-05T02:01:36;15.30;99.90
8988;DHT22;4529;51.360;12.474;2022-07-05T02:06:39;15.30;99.90
8988;DHT22;4529;51.360;12.474;2022-07-05T02:11:42;15.20;99.90
8988;DHT22;4529;51.360;12.474;2022-07-05T02:16:46;15.10;99.90
8988;DHT22;4529;51.360;12.474;2022-07-05T02:21:49;15.10;99.90
8988;DHT22;4529;51.360;12.474;2022-07-05T02:26:53;15.00;99.90
8988;DHT22;4529;51.360;12.474;2022-07-05T02:31:56;15.00;99.90
8988;DHT22;4529;51.360;12.474;2022-07-05T02:36:59;15.00;99.90
8988;DHT22;4529;51.360;12.474;2022-07-05T02:42:03;14.90;99.90
8988;DHT22;4529;51.360;12.474;2022-07-05T02:47:06;14.80;99.90
8988;DHT22;4529;51.360;12.474;2022-07-05T02:52:10;14.80;99.90
8988;DHT22;4529;51.360;12.474;2022-07-05T02:57:13;14.90;99.90
8988;DHT22;4529;51.360;12.474;2022-07-05T03:02:17;14.70;99.90
8988;DHT22;4529;51.360;12.474;2022-07-05T03:07:20;14.80;99.90
8988;DHT22;4529;51.360;12.474;2022-07-05T03:12:24;14.60;99.90
8988;DHT22;4529;51.360;12.474;2022-07-05T03:17:27;14.60;99.90
8988;DHT22;4529;51.360;12.474;2022-07-05T03:22:31;14.60;99.90
8988;DHT22;4529;51.360;12.474;2022-07-05T03:27:34;14.60;99.90
8988;DHT22;4529;51.360;12.474;2022-07-05T03:32:37;14.50;99.90
8988;DHT22;4529;51.360;12.474;2022-07-05T03:37:41;14.50;99.90
8988;DHT22;4529;51.360;12.474;2022-07-05T03:42:44;14.50;99.90
8988;DHT22;4529;51.360;12.474;2022-07-05T03:47:48;14.60;99.90
8988;DHT22;4529;51.360;12.474;2022-07-05T03:52:51;14.90;99.90
8988;DHT22;4529;51.360;12.474;2022-07-05T03:57:55;15.20;99.90
8988;DHT22;4529;51.360;12.474;2022-07-05T04:02:58;15.60;99.90
8988;DHT22;4529;51.360;12.474;2022-07-05T04:08:02;15.80;99.90
8988;DHT22;4529;51.360;12.474;2022-07-05T04:13:05;15.90;99.90
8988;DHT22;4529;51.360;12.474;2022-07-05T04:18:09;15.90;99.90
8988;DHT22;4529;51.360;12.474;2022-07-05T04:23:12;16.00;99.90
8988;DHT22;4529;51.360;12.474;2022-07-05T04:28:16;16.10;99.90
8988;DHT22;4529;51.360;12.474;2022-07-05T04:33:19;16.30;99.90
8988;DHT22;4529;51.360;12.474;2022-07-05T04:38:23;16.40;99.90
8988;DHT22;4529;51.360;12.474;2022-07-05T04:43:26;16.50;99.90
8988;DHT22;4529;51.360;12.474;2022-07-05T04:48:29;16.70;99.90
8988;DHT22;4529;51.360;12.474;2022-07-05T04:53:33;16.90;99.90
8988;DHT22;4529;51.360;12.474;2022-07-05T04:58:37;17.00;99.90
8988;DHT22;4529;51.360;12.474;2022-07-05T05:03:40;17.20;99.90
8988;DHT22;4529;51.360;12.474;2022-07-05T05:08:43;17.40;99.90
8988;DHT22;4529;51.360;12.474;2022-07-05T05:13:47;17.60;99.90
8988;DHT22;4529;51.360;12.474;2022-07-05T05:18:50;17.60;99.90
8988;DHT22;4529;51.360;12.474;2022-07-05T05:23:54;17.80;99.90
8988;DHT22;4529;51.360;12.474;2022-07-05T05:28:57;17.90;99.90
8988;DHT22;4529;51.360;12.474;2022-07-05T05:34:01;18.20;99.90
8988;DHT22;4529;51.360;12.474;2022-07-05T05:39:04;18.20;99.90
8988;DHT22;4529;51.360;12.474;2022-07-05T05:44:08;18.40;99.90
8988;DHT22;4529;51.360;12.474;2022-07-05T05:49:11;18.60;99.90
8988;DHT22;4529;51.360;12.474;2022-07-05T05:54:14;18.70;99.90
8988;DHT22;4529;51.360;12.474;2022-07-05T05:59:18;18.90;99.90
8988;DHT22;4529;51.360;12.474;2022-07-05T06:04:21;19.10;99.90
8988;DHT22;4529;51.360;12.474;2022-07-05T06:09:25;19.30;99.90
8988;DHT22;4529;51.360;12.474;2022-07-05T06:14:28;19.40;99.90
8988;DHT22;4529;51.360;12.474;2022-07-05T06:19:32;19.60;99.90
8988;DHT22;4529;51.360;12.474;2022-07-05T06:24:35;19.90;99.90
8988;DHT22;4529;51.360;12.474;2022-07-05T06:29:39;20.00;99.90
8988;DHT22;4529;51.360;12.474;2022-07-05T06:34:42;20.30;99.90
8988;DHT22;4529;51.360;12.474;2022-07-05T06:39:46;20.60;99.90
8988;DHT22;4529;51.360;12.474;2022-07-05T06:44:49;20.90;99.90
8988;DHT22;4529;51.360;12.474;2022-07-05T06:49:53;21.40;99.90
8988;DHT22;4529;51.360;12.474;2022-07-05T06:54:56;21.30;99.90
8988;DHT22;4529;51.360;12.474;2022-07-05T07:00:00;21.40;99.90
8988;DHT22;4529;51.360;12.474;2022-07-05T07:05:03;21.70;99.90
8988;DHT22;4529;51.360;12.474;2022-07-05T07:10:07;22.10;99.90
8988;DHT22;4529;51.360;12.474;2022-07-05T07:15:10;22.20;99.90
8988;DHT22;4529;51.360;12.474;2022-07-05T07:20:14;22.30;99.90
8988;DHT22;4529;51.360;12.474;2022-07-05T07:25:17;22.70;99.90
8988;DHT22;4529;51.360;12.474;2022-07-05T07:30:27;23.10;99.90
8988;DHT22;4529;51.360;12.474;2022-07-05T07:35:30;23.40;99.90
8988;DHT22;4529;51.360;12.474;2022-07-05T07:40:33;23.10;99.90
8988;DHT22;4529;51.360;12.474;2022-07-05T07:45:37;23.10;99.90
8988;DHT22;4529;51.360;12.474;2022-07-05T07:50:40;23.40;99.90
8988;DHT22;4529;51.360;12.474;2022-07-05T07:55:44;23.70;99.90
8988;DHT22;4529;51.360;12.474;2022-07-05T08:00:47;23.80;99.90
8988;DHT22;4529;51.360;12.474;2022-07-05T08:05:50;24.20;99.90
8988;DHT22;4529;51.360;12.474;2022-07-05T08:10:54;24.30;99.90
8988;DHT22;4529;51.360;12.474;2022-07-05T08:15:57;24.80;99.90
8988;DHT22;4529;51.360;12.474;2022-07-05T08:21:01;24.80;99.90
8988;DHT22;4529;51.360;12.474;2022-07-05T08:26:05;25.10;99.90
8988;DHT22;4529;51.360;12.474;2022-07-05T08:31:08;25.20;99.90
8988;DHT22;4529;51.360;12.474;2022-07-05T08:36:11;25.40;99.90
8988;DHT22;4529;51.360;12.474;2022-07-05T08:41:17;25.30;99.90
8988;DHT22;4529;51.360;12.474;2022-07-05T08:46:19;25.70;99.90
8988;DHT22;4529;51.360;12.474;2022-07-05T08:51:22;25.80;99.90
8988;DHT22;4529;51.360;12.474;2022-07-05T08:56:25;25.60;99.90
8988;DHT22;4529;51.360;12.474;2022-07-05T09:01:29;25.50;99.90
8988;DHT22;4529;51.360;12.474;2022-07-05T09:06:35;26.00;99.90
8988;DHT22;4529;51.360;12.474;2022-07-05T09:11:40;26.10;99.90
8988;DHT22;4529;51.360;12.474;2022-07-05T09:16:42;25.80;99.90
8988;DHT22;4529;51.360;12.474;2022-07-05T09:21:45;25.70;99.90
8988;DHT22;4529;51.360;12.474;2022-07-05T09:26:49;26.10;99.90
8988;DHT22;4529;51.360;12.474;2022-07-05T09:31:52;26.10;99.90
8988;DHT22;4529;51.360;12.474;2022-07-05T09:37:02;26.00;99.90
8988;DHT22;4529;51.360;12.474;2022-07-05T09:47:18;26.10;99.90
8988;DHT22;4529;51.360;12.474;2022-07-05T09:52:36;26.10;99.90
8988;DHT22;4529;51.360;12.474;2022-07-05T09:57:39;25.90;99.90
8988;DHT22;4529;51.360;12.474;2022-07-05T10:02:48;26.40;99.90
8988;DHT22;4529;51.360;12.474;2022-07-05T10:07:54;26.50;99.90
8988;DHT22;4529;51.360;12.474;2022-07-05T10:13:01;26.30;99.90
8988;DHT22;4529;51.360;12.474;2022-07-05T10:18:07;25.70;99.90
8988;DHT22;4529;51.360;12.474;2022-07-05T10:23:13;25.20;99.90
8988;DHT22;4529;51.360;12.474;2022-07-05T10:28:16;25.00;99.90
8988;DHT22;4529;51.360;12.474;2022-07-05T10:33:19;25.80;99.90
8988;DHT22;4529;51.360;12.474;2022-07-05T10:38:23;26.10;99.90
8988;DHT22;4529;51.360;12.474;2022-07-05T10:43:26;26.50;99.90
8988;DHT22;4529;51.360;12.474;2022-07-05T10:48:30;26.30;99.90
8988;DHT22;4529;51.360;12.474;2022-07-05T10:58:45;25.20;99.90
8988;DHT22;4529;51.360;12.474;2022-07-05T11:19:23;26.20;99.90
8988;DHT22;4529;51.360;12.474;2022-07-05T11:24:36;25.70;99.90
8988;DHT22;4529;51.360;12.474;2022-07-05T11:29:51;25.90;99.90
8988;DHT22;4529;51.360;12.474;2022-07-05T11:34:54;26.20;99.90
8988;DHT22;4529;51.360;12.474;2022-07-05T11:45:13;26.50;99.90
8988;DHT22;4529;51.360;12.474;2022-07-05T11:50:16;26.20;99.90
8988;DHT22;4529;51.360;12.474;2022-07-05T11:55:20;26.10;99.90
8988;DHT22;4529;51.360;12.474;2022-07-05T12:00:30;25.90;99.90
8988;DHT22;4529;51.360;12.474;2022-07-05T12:05:33;25.80;99.90
8988;DHT22;4529;51.360;12.474;2022-07-05T12:10:36;26.00;99.90
8988;DHT22;4529;51.360;12.474;2022-07-05T12:15:40;26.20;99.90
8988;DHT22;4529;51.360;12.474;2022-07-05T12:20:43;26.50;99.90
8988;DHT22;4529;51.360;12.474;2022-07-05T12:25:47;26.50;99.90
8988;DHT22;4529;51.360;12.474;2022-07-05T12:30:50;26.70;99.90
8988;DHT22;4529;51.360;12.474;2022-07-05T12:35:57;26.80;99.80
8988;DHT22;4529;51.360;12.474;2022-07-05T12:41:01;26.20;99.90
8988;DHT22;4529;51.360;12.474;2022-07-05T12:46:06;26.60;99.90
8988;DHT22;4529;51.360;12.474;2022-07-05T12:51:09;26.60;99.90
8988;DHT22;4529;51.360;12.474;2022-07-05T12:56:13;27.00;97.60
8988;DHT22;4529;51.360;12.474;2022-07-05T13:01:31;26.90;97.80
8988;DHT22;4529;51.360;12.474;2022-07-05T13:06:49;26.60;99.80
8988;DHT22;4529;51.360;12.474;2022-07-05T13:11:52;26.50;99.80
8988;DHT22;4529;51.360;12.474;2022-07-05T13:16:55;26.50;99.90
8988;DHT22;4529;51.360;12.474;2022-07-05T13:21:59;26.60;98.10
8988;DHT22;4529;51.360;12.474;2022-07-05T13:27:03;26.60;99.10
8988;DHT22;4529;51.360;12.474;2022-07-05T13:32:06;26.70;99.10
8988;DHT22;4529;51.360;12.474;2022-07-05T13:37:09;26.70;99.30
8988;DHT22;4529;51.360;12.474;2022-07-05T13:42:13;26.80;98.90
8988;DHT22;4529;51.360;12.474;2022-07-05T13:47:17;26.80;98.50
8988;DHT22;4529;51.360;12.474;2022-07-05T13:52:20;26.80;98.50
8988;DHT22;4529;51.360;12.474;2022-07-05T13:57:24;26.80;97.60
8988;DHT22;4529;51.360;12.474;2022-07-05T14:02:27;26.70;96.00
8988;DHT22;4529;51.360;12.474;2022-07-05T14:07:31;26.80;98.00
8988;DHT22;4529;51.360;12.474;2022-07-05T14:12:34;26.70;96.20
8988;DHT22;4529;51.360;12.474;2022-07-05T14:17:38;26.50;97.70
8988;DHT22;4529;51.360;12.474;2022-07-05T14:22:41;26.30;98.60
8988;DHT22;4529;51.360;12.474;2022-07-05T14:27:45;26.50;98.10
8988;DHT22;4529;51.360;12.474;2022-07-05T14:32:48;26.90;97.90
8988;DHT22;4529;51.360;12.474;2022-07-05T14:37:52;26.80;98.80
8988;DHT22;4529;51.360;12.474;2022-07-05T14:42:56;26.50;98.10
8988;DHT22;4529;51.360;12.474;2022-07-05T14:47:59;26.60;97.70
8988;DHT22;4529;51.360;12.474;2022-07-05T14:53:04;27.00;98.20
8988;DHT22;4529;51.360;12.474;2022-07-05T14:58:07;27.00;98.10
8988;DHT22;4529;51.360;12.474;2022-07-05T15:03:11;26.80;98.60
8988;DHT22;4529;51.360;12.474;2022-07-05T15:08:15;26.70;98.40
8988;DHT22;4529;51.360;12.474;2022-07-05T15:13:20;26.60;98.90
8988;DHT22;4529;51.360;12.474;2022-07-05T15:18:24;26.50;98.70
8988;DHT22;4529;51.360;12.474;2022-07-05T15:23:27;26.50;98.70
8988;DHT22;4529;51.360;12.474;2022-07-05T15:28:31;26.60;99.10
8988;DHT22;4529;51.360;12.474;2022-07-05T15:33:35;26.70;97.10
8988;DHT22;4529;51.360;12.474;2022-07-05T15:38:38;26.60;97.20
8988;DHT22;4529;51.360;12.474;2022-07-05T15:43:45;26.60;97.70
8988;DHT22;4529;51.360;12.474;2022-07-05T15:48:46;26.80;98.50
8988;DHT22;4529;51.360;12.474;2022-07-05T15:53:49;26.80;98.60
8988;DHT22;4529;51.360;12.474;2022-07-05T15:58:53;26.80;97.30
8988;DHT22;4529;51.360;12.474;2022-07-05T16:03:57;26.70;97.30
8988;DHT22;4529;51.360;12.474;2022-07-05T16:09:00;26.60;99.00
8988;DHT22;4529;51.360;12.474;2022-07-05T16:14:03;26.60;98.50
8988;DHT22;4529;51.360;12.474;2022-07-05T16:19:07;26.70;98.90
8988;DHT22;4529;51.360;12.474;2022-07-05T16:24:10;26.60;98.70
8988;DHT22;4529;51.360;12.474;2022-07-05T16:29:13;26.50;98.70
8988;DHT22;4529;51.360;12.474;2022-07-05T16:34:18;26.40;99.50
8988;DHT22;4529;51.360;12.474;2022-07-05T16:39:22;26.30;99.90
8988;DHT22;4529;51.360;12.474;2022-07-05T16:44:26;26.20;98.80
8988;DHT22;4529;51.360;12.474;2022-07-05T16:49:30;26.10;99.00
8988;DHT22;4529;51.360;12.474;2022-07-05T16:54:33;26.00;98.90
8988;DHT22;4529;51.360;12.474;2022-07-05T16:59:37;26.00;99.60
8988;DHT22;4529;51.360;12.474;2022-07-05T17:04:40;25.90;99.50
8988;DHT22;4529;51.360;12.474;2022-07-05T17:09:44;25.80;99.70
8988;DHT22;4529;51.360;12.474;2022-07-05T17:14:47;25.60;99.90
8988;DHT22;4529;51.360;12.474;2022-07-05T17:19:52;25.40;99.20
8988;DHT22;4529;51.360;12.474;2022-07-05T17:24:56;25.40;99.80
8988;DHT22;4529;51.360;12.474;2022-07-05T17:30:00;25.30;99.80
8988;DHT22;4529;51.360;12.474;2022-07-05T17:35:06;25.20;99.90
8988;DHT22;4529;51.360;12.474;2022-07-05T17:40:09;25.10;99.90
8988;DHT22;4529;51.360;12.474;2022-07-05T17:45:12;25.10;99.90
8988;DHT22;4529;51.360;12.474;2022-07-05T17:50:16;25.00;99.90
8988;DHT22;4529;51.360;12.474;2022-07-05T17:55:19;24.90;99.90
8988;DHT22;4529;51.360;12.474;2022-07-05T18:00:23;24.80;99.90
8988;DHT22;4529;51.360;12.474;2022-07-05T18:05:27;24.70;99.90
8988;DHT22;4529;51.360;12.474;2022-07-05T18:10:31;24.30;99.90
8988;DHT22;4529;51.360;12.474;2022-07-05T18:15:36;24.20;99.90
8988;DHT22;4529;51.360;12.474;2022-07-05T18:20:43;24.00;99.90
8988;DHT22;4529;51.360;12.474;2022-07-05T18:25:46;24.00;99.90
8988;DHT22;4529;51.360;12.474;2022-07-05T18:30:50;23.70;99.90
8988;DHT22;4529;51.360;12.474;2022-07-05T18:35:53;23.70;99.90
8988;DHT22;4529;51.360;12.474;2022-07-05T18:40:57;23.50;99.90
8988;DHT22;4529;51.360;12.474;2022-07-05T18:46:00;23.40;99.90
8988;DHT22;4529;51.360;12.474;2022-07-05T18:51:05;23.30;99.90
8988;DHT22;4529;51.360;12.474;2022-07-05T18:56:09;23.10;99.90
8988;DHT22;4529;51.360;12.474;2022-07-05T19:01:13;23.00;99.90
8988;DHT22;4529;51.360;12.474;2022-07-05T19:06:17;23.00;99.90
8988;DHT22;4529;51.360;12.474;2022-07-05T19:11:21;22.90;99.90
8988;DHT22;4529;51.360;12.474;2022-07-05T19:16:25;22.80;99.90
8988;DHT22;4529;51.360;12.474;2022-07-05T19:21:29;22.80;99.90
8988;DHT22;4529;51.360;12.474;2022-07-05T19:26:33;22.60;99.90
8988;DHT22;4529;51.360;12.474;2022-07-05T19:31:37;22.60;99.40
8988;DHT22;4529;51.360;12.474;2022-07-05T19:36:41;22.50;99.90
8988;DHT22;4529;51.360;12.474;2022-07-05T19:41:45;22.50;99.90
8988;DHT22;4529;51.360;12.474;2022-07-05T19:46:49;22.30;99.90
8988;DHT22;4529;51.360;12.474;2022-07-05T19:51:53;22.20;99.90
8988;DHT22;4529;51.360;12.474;2022-07-05T19:56:57;22.10;99.90
8988;DHT22;4529;51.360;12.474;2022-07-05T20:02:02;22.00;99.90
8988;DHT22;4529;51.360;12.474;2022-07-05T20:07:05;21.90;99.90
8988;DHT22;4529;51.360;12.474;2022-07-05T20:12:10;21.80;99.90
8988;DHT22;4529;51.360;12.474;2022-07-05T20:17:14;21.80;99.90
8988;DHT22;4529;51.360;12.474;2022-07-05T20:22:18;21.70;99.90
8988;DHT22;4529;51.360;12.474;2022-07-05T20:27:22;21.80;99.90
8988;DHT22;4529;51.360;12.474;2022-07-05T20:32:28;21.80;99.90
8988;DHT22;4529;51.360;12.474;2022-07-05T20:37:32;21.80;99.90
8988;DHT22;4529;51.360;12.474;2022-07-05T20:42:35;21.70;99.90
8988;DHT22;4529;51.360;12.474;2022-07-05T20:47:39;21.70;99.90
8988;DHT22;4529;51.360;12.474;2022-07-05T20:52:42;21.50;99.90
8988;DHT22;4529;51.360;12.474;2022-07-05T20:57:46;21.40;99.90
8988;DHT22;4529;51.360;12.474;2022-07-05T21:02:49;21.30;99.90
8988;DHT22;4529;51.360;12.474;2022-07-05T21:07:53;21.20;99.90
8988;DHT22;4529;51.360;12.474;2022-07-05T21:12:56;21.10;99.90
8988;DHT22;4529;51.360;12.474;2022-07-05T21:18:00;21.10;99.90
8988;DHT22;4529;51.360;12.474;2022-07-05T21:23:03;21.00;99.90
8988;DHT22;4529;51.360;12.474;2022-07-05T21:28:07;21.10;99.90
8988;DHT22;4529;51.360;12.474;2022-07-05T21:33:10;21.10;99.90
8988;DHT22;4529;51.360;12.474;2022-07-05T21:38:14;21.00;99.90
8988;DHT22;4529;51.360;12.474;2022-07-05T21:43:17;21.00;99.90
8988;DHT22;4529;51.360;12.474;2022-07-05T21:48:21;21.00;99.90
8988;DHT22;4529;51.360;12.474;2022-07-05T21:53:24;20.90;99.90
8988;DHT22;4529;51.360;12.474;2022-07-05T21:58:27;21.00;99.90
8988;DHT22;4529;51.360;12.474;2022-07-05T22:03:32;20.90;99.90
8988;DHT22;4529;51.360;12.474;2022-07-05T22:08:36;20.90;99.90
8988;DHT22;4529;51.360;12.474;2022-07-05T22:13:40;20.90;99.90
8988;DHT22;4529;51.360;12.474;2022-07-05T22:18:44;20.90;99.90
8988;DHT22;4529;51.360;12.474;2022-07-05T22:23:48;20.90;99.90
8988;DHT22;4529;51.360;12.474;2022-07-05T22:28:52;20.80;99.90
8988;DHT22;4529;51.360;12.474;2022-07-05T22:33:55;20.70;99.90
8988;DHT22;4529;51.360;12.474;2022-07-05T22:38:59;20.80;99.90
8988;DHT22;4529;51.360;12.474;2022-07-05T22:44:02;20.70;99.90
8988;DHT22;4529;51.360;12.474;2022-07-05T22:49:06;20.50;99.90
8988;DHT22;4529;51.360;12.474;2022-07-05T22:54:10;20.50;99.90
8988;DHT22;4529;51.360;12.474;2022-07-05T22:59:13;20.50;99.90
8988;DHT22;4529;51.360;12.474;2022-07-05T23:04:17;20.40;99.90
8988;DHT22;4529;51.360;12.474;2022-07-05T23:09:20;20.40;99.90
8988;DHT22;4529;51.360;12.474;2022-07-05T23:14:23;20.40;99.90
8988;DHT22;4529;51.360;12.474;2022-07-05T23:19:27;20.40;99.90
8988;DHT22;4529;51.360;12.474;2022-07-05T23:24:30;20.50;99.90
8988;DHT22;4529;51.360;12.474;2022-07-05T23:29:34;20.50;99.90
8988;DHT22;4529;51.360;12.474;2022-07-05T23:34:37;20.40;99.90
8988;DHT22;4529;51.360;12.474;2022-07-05T23:39:41;20.40;99.90
8988;DHT22;4529;51.360;12.474;2022-07-05T23:44:44;20.30;99.90
8988;DHT22;4529;51.360;12.474;2022-07-05T23:49:48;20.20;99.90
8988;DHT22;4529;51.360;12.474;2022-07-05T23:54:51;20.10;99.90
8988;DHT22;4529;51.360;12.474;2022-07-05T23:59:55;20.00;99.90
